createdAt,value
2018-08-03T00:03:31.801Z,2.30
2018-08-03T00:08:36.549Z,2.53
2018-08-03T00:13:41.468Z,2.33
2018-08-03T00:18:46.150Z,2.87
2018-08-03T00:23:51.337Z,2.40
2018-08-03T00:28:56.350Z,2.37
2018-08-03T00:34:00.913Z,2.30
2018-08-03T00:39:08.130Z,2.30
2018-08-03T00:44:12.919Z,2.40
2018-08-03T00:49:17.726Z,2.27
2018-08-03T00:54:22.403Z,2.60
2018-08-03T00:59:27.144Z,2.40
2018-08-03T01:04:31.791Z,2.50
2018-08-03T01:09:36.566Z,2.37
2018-08-03T01:14:41.129Z,2.40
2018-08-03T01:19:45.693Z,2.10
2018-08-03T01:24:50.749Z,2.40
2018-08-03T01:29:55.414Z,2.30
2018-08-03T01:34:59.520Z,2.70
2018-08-03T01:40:04.184Z,2.30
2018-08-03T01:45:08.879Z,2.10
2018-08-03T01:50:13.547Z,2.30
2018-08-03T01:55:18.298Z,2.80
2018-08-03T02:00:23.036Z,2.30
2018-08-03T02:05:28.675Z,2.33
2018-08-03T02:10:33.589Z,2.63
2018-08-03T02:15:38.278Z,2.40
2018-08-03T02:20:42.725Z,2.67
2018-08-03T02:25:47.333Z,2.23
2018-08-03T02:30:52.198Z,2.70
2018-08-03T02:35:56.308Z,3.07
2018-08-03T02:41:01.084Z,2.53
2018-08-03T02:46:05.767Z,2.20
2018-08-03T02:51:10.449Z,2.40
2018-08-03T02:56:15.977Z,2.50
2018-08-03T03:01:20.826Z,2.43
2018-08-03T03:06:25.849Z,2.47
2018-08-03T03:11:30.502Z,2.10
2018-08-03T03:16:35.058Z,2.77
2018-08-03T03:21:39.623Z,2.50
2018-08-03T03:26:44.906Z,1.90
2018-08-03T03:31:49.594Z,3.03
2018-08-03T03:36:54.393Z,2.37
2018-08-03T03:41:59.189Z,2.50
2018-08-03T03:47:03.751Z,1.93
2018-08-03T03:52:08.431Z,2.70
2018-08-03T03:57:13.052Z,2.83
2018-08-03T04:02:18.157Z,2.60
2018-08-03T04:07:22.842Z,2.73
2018-08-03T04:12:27.604Z,2.27
2018-08-03T04:17:32.200Z,2.60
2018-08-03T04:22:37.002Z,2.43
2018-08-03T04:27:41.685Z,2.77
2018-08-03T04:32:46.493Z,2.57
2018-08-03T04:37:51.175Z,2.97
2018-08-03T04:42:55.983Z,2.83
2018-08-03T04:48:01.016Z,2.70
2018-08-03T04:53:05.695Z,3.67
2018-08-03T04:58:10.495Z,3.33
2018-08-03T05:03:15.415Z,3.13
2018-08-03T05:08:20.223Z,3.37
2018-08-03T05:13:25.019Z,3.33
2018-08-03T05:18:29.599Z,3.00
2018-08-03T05:23:34.384Z,3.90
2018-08-03T05:28:39.189Z,3.50
2018-08-03T05:33:43.886Z,3.10
2018-08-03T05:38:49.525Z,3.10
2018-08-03T05:43:57.098Z,3.23
2018-08-03T05:49:02.968Z,3.10
2018-08-03T05:54:08.244Z,3.27
2018-08-03T05:59:12.493Z,3.60
2018-08-03T06:04:18.091Z,4.43
2018-08-03T06:09:22.885Z,3.97
2018-08-03T06:14:31.593Z,4.30
2018-08-03T06:19:36.327Z,4.30
2018-08-03T06:24:41.248Z,4.27
2018-08-03T06:29:47.099Z,4.13
2018-08-03T06:34:51.690Z,4.17
2018-08-03T06:39:56.376Z,4.80
2018-08-03T06:45:02.974Z,4.67
2018-08-03T06:50:08.509Z,4.60
2018-08-03T06:55:13.304Z,4.97
2018-08-03T07:00:18.103Z,4.07
2018-08-03T07:05:22.785Z,3.43
2018-08-03T07:10:27.848Z,3.80
2018-08-03T07:15:33.108Z,6.07
2018-08-03T07:20:37.851Z,4.07
2018-08-03T07:25:46.199Z,4.20
2018-08-03T07:30:50.883Z,4.20
2018-08-03T07:35:56.035Z,3.90
2018-08-03T07:41:00.597Z,5.50
2018-08-03T07:46:05.405Z,5.27
2018-08-03T07:51:11.891Z,5.87
2018-08-03T07:56:17.167Z,4.23
2018-08-03T08:01:22.093Z,4.27
2018-08-03T08:06:26.529Z,5.20
2018-08-03T08:11:31.458Z,4.33
2018-08-03T08:16:36.254Z,4.60
2018-08-03T08:21:41.180Z,4.23
2018-08-03T08:26:45.992Z,4.60
2018-08-03T08:31:51.496Z,4.20
2018-08-03T08:36:56.585Z,4.10
2018-08-03T08:42:01.347Z,3.90
2018-08-03T08:47:06.501Z,4.87
2018-08-03T08:52:11.192Z,5.20
2018-08-03T08:57:15.984Z,5.53
2018-08-03T09:02:22.111Z,5.00
2018-08-03T09:07:26.828Z,4.30
2018-08-03T09:12:31.603Z,4.17
2018-08-03T09:17:36.513Z,4.57
2018-08-03T09:22:41.328Z,4.40
2018-08-03T09:27:46.145Z,5.10
2018-08-03T09:32:51.108Z,4.70
2018-08-03T09:37:55.841Z,4.53
2018-08-03T09:43:00.422Z,5.50
2018-08-03T09:48:05.332Z,4.87
2018-08-03T09:53:10.020Z,5.00
2018-08-03T09:58:15.774Z,4.40
2018-08-03T10:03:20.461Z,4.83
2018-08-03T10:08:25.252Z,4.73
2018-08-03T10:13:30.076Z,4.77
2018-08-03T10:18:35.705Z,4.93
2018-08-03T10:23:40.994Z,5.03
2018-08-03T10:28:46.019Z,5.30
2018-08-03T10:33:50.942Z,5.37
2018-08-03T10:38:55.757Z,5.40
2018-08-03T10:44:01.149Z,4.63
2018-08-03T10:50:35.059Z,5.53
2018-08-03T10:55:40.048Z,5.65
2018-08-03T11:00:52.270Z,5.17
2018-08-03T11:05:56.959Z,5.60
2018-08-03T11:11:01.277Z,4.87
2018-08-03T11:16:05.958Z,5.50
2018-08-03T11:21:11.118Z,5.65
2018-08-03T11:26:15.920Z,4.67
2018-08-03T11:31:20.765Z,3.92
2018-08-03T11:36:25.525Z,4.45
2018-08-03T11:41:30.336Z,4.12
2018-08-03T11:46:35.051Z,4.20
2018-08-03T11:51:39.813Z,4.30
2018-08-03T11:56:44.509Z,4.20
2018-08-03T12:01:50.034Z,3.92
2018-08-03T12:06:54.699Z,4.42
2018-08-03T12:11:59.737Z,3.52
2018-08-03T12:17:06.375Z,4.30
2018-08-03T12:22:11.997Z,4.17
2018-08-03T12:27:16.902Z,3.95
2018-08-03T12:32:21.228Z,4.53
2018-08-03T12:37:25.669Z,4.40
2018-08-03T12:42:34.193Z,4.30
2018-08-03T12:47:39.590Z,4.00
2018-08-03T12:52:44.426Z,3.67
2018-08-03T12:57:49.076Z,4.35
2018-08-03T13:02:53.759Z,3.60
2018-08-03T13:07:58.592Z,3.72
2018-08-03T13:13:03.426Z,4.33
2018-08-03T13:18:08.067Z,3.75
2018-08-03T13:23:12.848Z,3.58
2018-08-03T13:28:17.652Z,4.08
2018-08-03T13:33:22.338Z,4.42
2018-08-03T13:38:27.129Z,4.33
2018-08-03T13:43:31.937Z,3.70
2018-08-03T13:48:36.736Z,3.25
2018-08-03T13:53:41.778Z,4.03
2018-08-03T13:58:46.954Z,4.10
2018-08-03T14:03:51.772Z,4.35
2018-08-03T14:08:56.542Z,4.28
2018-08-03T14:14:01.591Z,4.72
2018-08-03T14:19:06.626Z,5.30
2018-08-03T14:24:11.557Z,4.30
2018-08-03T14:29:16.227Z,4.28
2018-08-03T14:34:21.049Z,4.60
2018-08-03T14:39:25.971Z,5.42
2018-08-03T14:44:30.993Z,4.70
2018-08-03T14:49:35.679Z,6.25
2018-08-03T14:54:40.359Z,5.37
2018-08-03T14:59:45.398Z,5.10
2018-08-03T15:04:50.206Z,6.10
2018-08-03T15:09:55.003Z,5.17
2018-08-03T15:14:59.924Z,4.92
2018-08-03T15:20:05.445Z,4.30
2018-08-03T15:25:09.886Z,5.20
2018-08-03T15:30:15.570Z,5.03
2018-08-03T15:35:20.238Z,5.10
2018-08-03T15:40:24.898Z,5.23
2018-08-03T15:45:29.639Z,4.80
2018-08-03T15:50:34.379Z,4.83
2018-08-03T15:55:39.210Z,4.30
2018-08-03T16:00:44.223Z,3.83
2018-08-03T16:05:49.032Z,3.93
2018-08-03T16:10:53.469Z,3.97
2018-08-03T16:15:58.264Z,4.37
2018-08-03T16:21:03.191Z,4.10
2018-08-03T16:26:08.708Z,3.57
2018-08-03T16:31:14.230Z,3.10
2018-08-03T16:36:19.161Z,3.80
2018-08-03T16:41:25.404Z,4.23
2018-08-03T16:46:30.344Z,3.80
2018-08-03T16:51:34.996Z,3.40
2018-08-03T16:56:39.816Z,3.97
2018-08-03T17:01:45.687Z,3.90
2018-08-03T17:06:50.606Z,3.50
2018-08-03T17:11:55.529Z,3.37
2018-08-03T17:17:01.053Z,3.30
2018-08-03T17:22:06.047Z,4.00
2018-08-03T17:27:10.791Z,3.73
2018-08-03T17:32:15.571Z,3.90
2018-08-03T17:37:20.500Z,3.50
2018-08-03T17:42:24.827Z,3.50
2018-08-03T17:47:29.381Z,3.87
2018-08-03T17:52:34.538Z,3.50
2018-08-03T17:57:39.228Z,3.50
2018-08-03T18:02:44.025Z,3.60
2018-08-03T18:07:48.830Z,3.70
2018-08-03T18:12:53.508Z,2.97
2018-08-03T18:17:58.189Z,3.60
2018-08-03T18:23:03.115Z,3.30
2018-08-03T18:28:07.821Z,3.40
2018-08-03T18:33:12.715Z,3.50
2018-08-03T18:38:17.603Z,3.40
2018-08-03T18:43:22.256Z,3.10
2018-08-03T18:48:27.000Z,3.47
2018-08-03T18:53:31.808Z,3.67
2018-08-03T18:58:36.720Z,3.47
2018-08-03T19:03:42.363Z,2.90
2018-08-03T19:08:47.647Z,3.13
2018-08-03T19:13:53.171Z,3.27
2018-08-03T19:18:57.969Z,3.20
2018-08-03T19:24:02.659Z,3.33
2018-08-03T19:29:07.455Z,3.57
2018-08-03T19:34:13.215Z,3.10
2018-08-03T19:39:17.896Z,3.07
2018-08-03T19:44:22.585Z,3.07
2018-08-03T19:49:27.269Z,3.30
2018-08-03T19:54:31.940Z,3.73
2018-08-03T19:59:36.755Z,3.20
2018-08-03T20:04:41.424Z,3.27
2018-08-03T20:09:46.121Z,3.47
2018-08-03T20:14:50.917Z,2.80
2018-08-03T20:19:55.597Z,3.13
2018-08-03T20:25:00.151Z,3.17
2018-08-03T20:30:05.568Z,3.20
2018-08-03T20:35:10.434Z,3.27
2018-08-03T20:40:15.181Z,3.13
2018-08-03T20:45:19.857Z,3.07
2018-08-03T20:50:24.525Z,2.70
2018-08-03T20:55:29.211Z,3.13
2018-08-03T21:00:34.126Z,3.57
2018-08-03T21:05:38.935Z,3.37
2018-08-03T21:10:44.688Z,3.03
2018-08-03T21:15:49.524Z,3.07
2018-08-03T21:20:54.404Z,2.77
2018-08-03T21:25:58.994Z,3.20
2018-08-03T21:31:04.618Z,3.00
2018-08-03T21:36:09.306Z,2.97
2018-08-03T21:41:13.978Z,2.80
2018-08-03T21:46:18.664Z,3.20
2018-08-03T21:51:47.416Z,2.77
2018-08-03T21:56:56.946Z,2.90
2018-08-03T22:02:01.962Z,3.10
2018-08-03T22:07:06.669Z,2.87
2018-08-03T22:12:11.388Z,3.47
2018-08-03T22:17:16.397Z,3.03
2018-08-03T22:22:21.071Z,3.00
2018-08-03T22:27:25.636Z,3.30
2018-08-03T22:32:30.616Z,3.10
2018-08-03T22:37:36.590Z,3.20
2018-08-03T22:42:41.465Z,3.20
2018-08-03T22:47:46.345Z,3.00
2018-08-03T22:52:51.117Z,3.43
2018-08-03T22:57:55.947Z,3.40
2018-08-03T23:03:00.446Z,4.30
2018-08-03T23:08:05.618Z,3.83
2018-08-03T23:13:10.418Z,3.33
2018-08-03T23:18:15.341Z,3.47
2018-08-03T23:23:20.261Z,3.07
2018-08-03T23:28:25.057Z,3.33
2018-08-03T23:33:29.737Z,3.70
2018-08-03T23:38:35.380Z,3.93
2018-08-03T23:43:39.940Z,3.37
2018-08-03T23:48:44.636Z,3.80
2018-08-03T23:53:49.484Z,3.67
2018-08-03T23:58:54.947Z,3.17
